Main page
METAR-TAF:

Airports :

Bauru, São Paulo, Brazil

Bauru Airport

latitude: 22-19S, longitude: 049-04W, elevation: 590 m

Current weather observation

The report was made 2 hours and 19 minutes ago, at 06:00 UTC
Wind 6 kt from the East/Southeast
Temperature 19°C
Humidity 43%
Pressure 1014 hPa
Visibility 10 km or more
no clouds below 1500 m and no cumulonimbus

METAR: SBBU 290600Z 11006KT CAVOK 19/06 Q1014

Time: 05:19 (08:19 UTC)

Forecast

The report was made 5 hours and 19 minutes ago, at 03:00 UTC
Forecast valid from 29 at 06 UTC to 29 at 18 UTC
Wind 4 kt from the South/Southeast
Visibility 10 km or more
no clouds below 1500 m and no cumulonimbus
Becoming
from 29 at 12 UTC to 29 at 14 UTC
Wind 8 kt from the East/Southeast

TAF: SBBU 290300Z 2906/2918 16004KT CAVOK TN15/2908Z TX31/2917Z BECMG 2912/2914 12008KT RMK PER

METAR-TAF

Weather observations and forecasts of more than 4000 airports (METAR and TAF reports).

The available stations are represented by yellow and red dots on the map.

Hover mouse over dot to see the name of the station.

Then click to see weather observations and forecasts.

To change the map : click on the green buttons with a black cross to zoom in, on the green button with a dash to zoom out, or on the green arrows for adjacent maps.


METAR-TAF: